createdAt,value
2023-05-09T00:00:23.504Z,7.90
2023-05-09T00:03:12.773Z,7.88
2023-05-09T00:06:00.304Z,7.53
2023-05-09T00:08:47.735Z,8.07
2023-05-09T00:11:36.855Z,7.55
2023-05-09T00:14:24.937Z,7.32
2023-05-09T00:17:15.858Z,8.38
2023-05-09T00:20:05.223Z,8.10
2023-05-09T00:22:53.060Z,7.90
2023-05-09T00:25:40.703Z,8.05
2023-05-09T00:28:29.721Z,7.07
2023-05-09T00:31:17.514Z,8.18
2023-05-09T00:34:05.279Z,7.38
2023-05-09T00:36:53.032Z,7.93
2023-05-09T00:39:40.360Z,8.05
2023-05-09T00:42:28.056Z,6.72
2023-05-09T00:45:17.072Z,8.00
2023-05-09T00:48:05.032Z,8.25
2023-05-09T00:50:53.351Z,7.80
2023-05-09T00:53:41.712Z,8.77
2023-05-09T00:56:29.525Z,9.13
2023-05-09T00:59:18.116Z,8.38
2023-05-09T01:02:07.088Z,7.35
2023-05-09T01:04:55.182Z,8.77
2023-05-09T01:07:51.134Z,8.57
2023-05-09T01:10:56.525Z,9.93
2023-05-09T01:13:53.677Z,8.77
2023-05-09T01:16:47.092Z,8.27
2023-05-09T01:19:58.405Z,8.55
2023-05-09T01:22:53.800Z,8.68
2023-05-09T01:25:56.045Z,6.72
2023-05-09T01:29:06.792Z,8.85
2023-05-09T01:31:57.911Z,8.75
2023-05-09T01:34:46.474Z,8.80
2023-05-09T01:37:36.822Z,8.75
2023-05-09T01:40:26.958Z,9.43
2023-05-09T01:43:18.252Z,8.63
2023-05-09T01:46:06.712Z,8.55
2023-05-09T01:48:57.087Z,7.72
2023-05-09T01:51:46.083Z,8.90
2023-05-09T01:54:34.860Z,8.18
2023-05-09T01:57:24.270Z,8.15
2023-05-09T02:00:14.400Z,9.13
2023-05-09T02:03:03.188Z,7.78
2023-05-09T02:05:53.349Z,7.15
2023-05-09T02:08:41.973Z,8.55
2023-05-09T02:11:29.364Z,8.82
2023-05-09T02:14:16.994Z,9.52
2023-05-09T02:17:07.133Z,8.55
2023-05-09T02:19:54.540Z,8.23
2023-05-09T02:22:45.125Z,8.20
2023-05-09T02:25:34.296Z,8.55
2023-05-09T02:28:23.723Z,9.55
2023-05-09T02:31:13.161Z,8.27
2023-05-09T02:34:01.338Z,9.10
2023-05-09T02:36:48.910Z,8.52
2023-05-09T02:39:38.417Z,9.32
2023-05-09T02:42:30.075Z,7.53
2023-05-09T02:45:18.178Z,8.35
2023-05-09T02:48:08.692Z,8.52
2023-05-09T02:50:57.822Z,8.90
2023-05-09T02:53:45.352Z,8.02
2023-05-09T02:56:34.443Z,8.80
2023-05-09T02:59:22.318Z,8.90
2023-05-09T03:02:10.270Z,8.93
2023-05-09T03:04:57.767Z,8.43
2023-05-09T03:07:46.178Z,9.25
2023-05-09T03:10:33.675Z,9.07
2023-05-09T03:13:22.450Z,8.63
2023-05-09T03:16:10.439Z,9.07
2023-05-09T03:18:58.174Z,8.90
2023-05-09T03:21:45.743Z,9.15
2023-05-09T03:24:33.555Z,9.85
2023-05-09T03:27:21.174Z,8.52
2023-05-09T03:30:12.983Z,10.75
2023-05-09T03:33:01.800Z,9.85
2023-05-09T03:35:49.407Z,10.13
2023-05-09T03:38:36.884Z,9.38
2023-05-09T03:41:24.348Z,9.02
2023-05-09T03:44:12.076Z,9.57
2023-05-09T03:47:01.319Z,9.00
2023-05-09T03:49:55.189Z,9.23
2023-05-09T03:52:44.169Z,10.48
2023-05-09T03:55:34.189Z,11.15
2023-05-09T03:58:21.936Z,9.93
2023-05-09T04:01:09.681Z,10.35
2023-05-09T04:03:58.906Z,10.40
2023-05-09T04:06:48.205Z,10.70
2023-05-09T04:09:38.120Z,11.00
2023-05-09T04:12:26.212Z,10.88
2023-05-09T04:15:14.275Z,9.85
2023-05-09T04:18:02.619Z,9.75
2023-05-09T04:20:51.335Z,10.98
2023-05-09T04:23:39.849Z,9.73
2023-05-09T04:26:28.293Z,9.77
2023-05-09T04:29:17.234Z,10.50
2023-05-09T04:32:10.532Z,9.80
2023-05-09T04:34:58.979Z,9.68
2023-05-09T04:37:53.212Z,9.45
2023-05-09T04:40:41.216Z,9.10
2023-05-09T04:43:29.956Z,8.70
2023-05-09T04:46:18.043Z,9.70
2023-05-09T04:49:06.025Z,9.68
2023-05-09T04:51:53.792Z,8.75
2023-05-09T04:54:42.658Z,8.48
2023-05-09T04:57:33.223Z,9.32
2023-05-09T05:00:22.920Z,7.35
2023-05-09T05:03:10.463Z,7.47
2023-05-09T05:05:58.060Z,6.93
2023-05-09T05:08:45.633Z,8.73
2023-05-09T05:11:34.684Z,7.85
2023-05-09T05:14:24.541Z,6.63
2023-05-09T05:17:12.215Z,6.90
2023-05-09T05:20:00.305Z,7.43
2023-05-09T05:22:50.372Z,7.22
2023-05-09T05:25:38.192Z,7.07
2023-05-09T05:28:27.573Z,7.32
2023-05-09T05:31:15.296Z,7.10
2023-05-09T05:34:02.873Z,6.10
2023-05-09T05:36:51.910Z,6.63
2023-05-09T05:39:39.501Z,6.43
2023-05-09T05:42:27.149Z,6.53
2023-05-09T05:45:17.123Z,7.15
2023-05-09T05:48:09.053Z,7.47
2023-05-09T05:50:56.900Z,7.07
2023-05-09T05:53:47.746Z,7.65
2023-05-09T05:56:35.630Z,6.72
2023-05-09T05:59:23.247Z,6.93
2023-05-09T06:02:12.136Z,6.60
2023-05-09T06:05:00.783Z,7.18
2023-05-09T06:07:51.064Z,6.72
2023-05-09T06:10:38.497Z,7.55
2023-05-09T06:13:26.128Z,7.20
2023-05-09T06:16:20.721Z,6.25
2023-05-09T06:19:13.146Z,6.50
2023-05-09T06:22:00.933Z,7.03
2023-05-09T06:24:48.582Z,6.53
2023-05-09T06:27:36.223Z,6.50
2023-05-09T06:30:26.781Z,6.80
2023-05-09T06:33:14.858Z,7.10
2023-05-09T06:36:04.236Z,5.63
2023-05-09T06:38:51.725Z,6.55
2023-05-09T06:41:39.160Z,6.30
2023-05-09T06:44:26.886Z,6.63
2023-05-09T06:47:14.409Z,5.85
2023-05-09T06:50:01.815Z,5.57
2023-05-09T06:52:51.134Z,4.68
2023-05-09T06:55:38.856Z,4.82
2023-05-09T06:58:27.549Z,4.72
2023-05-09T07:01:15.272Z,4.75
2023-05-09T07:04:02.768Z,3.88
2023-05-09T07:06:50.285Z,4.15
2023-05-09T07:09:39.123Z,4.15
2023-05-09T07:12:26.807Z,4.18
2023-05-09T07:15:16.861Z,3.40
2023-05-09T07:18:10.486Z,4.27
2023-05-09T07:20:57.778Z,4.00
2023-05-09T07:23:45.232Z,3.67
2023-05-09T07:26:34.103Z,4.07
2023-05-09T07:29:21.736Z,3.88
2023-05-09T07:32:09.351Z,3.88
2023-05-09T07:34:57.031Z,4.88
2023-05-09T07:37:44.753Z,4.22
2023-05-09T07:40:32.431Z,4.53
2023-05-09T07:43:21.615Z,4.05
2023-05-09T07:46:09.430Z,3.70
2023-05-09T07:48:57.403Z,4.20
2023-05-09T07:51:44.696Z,4.43
2023-05-09T07:54:32.214Z,4.05
2023-05-09T07:57:20.302Z,3.90
2023-05-09T08:00:10.779Z,3.88
2023-05-09T08:03:01.332Z,3.47
2023-05-09T08:05:49.094Z,4.30
2023-05-09T08:08:38.368Z,3.83
2023-05-09T08:11:26.699Z,3.85
2023-05-09T08:14:15.618Z,4.18
2023-05-09T08:17:04.647Z,4.13
2023-05-09T08:19:52.099Z,4.03
2023-05-09T08:22:40.447Z,3.47
2023-05-09T08:25:29.643Z,3.60
2023-05-09T08:28:18.012Z,3.20
2023-05-09T08:31:06.063Z,3.72
2023-05-09T08:33:55.104Z,3.17
2023-05-09T08:36:45.562Z,2.97
2023-05-09T08:39:34.974Z,3.22
2023-05-09T08:42:26.217Z,2.90
2023-05-09T08:45:15.989Z,3.53
2023-05-09T08:48:04.366Z,2.97
2023-05-09T08:50:54.062Z,3.10
2023-05-09T08:53:41.754Z,3.50
2023-05-09T08:56:29.785Z,3.75
2023-05-09T08:59:18.749Z,3.40
2023-05-09T09:02:08.190Z,3.38
2023-05-09T09:04:56.668Z,2.88
2023-05-09T09:07:47.244Z,3.13
2023-05-09T09:10:35.503Z,2.47
2023-05-09T09:13:24.286Z,2.50
2023-05-09T09:16:15.630Z,2.55
2023-05-09T09:19:04.101Z,2.60
2023-05-09T09:21:55.095Z,2.70
2023-05-09T09:24:43.737Z,2.95
2023-05-09T09:27:31.152Z,2.33
2023-05-09T09:30:20.188Z,2.60
2023-05-09T09:33:08.407Z,2.75
2023-05-09T09:35:57.466Z,2.60
2023-05-09T09:38:45.071Z,2.70
2023-05-09T09:41:35.314Z,2.85
2023-05-09T09:44:23.886Z,2.78
2023-05-09T09:47:12.346Z,2.97
2023-05-09T09:49:59.852Z,2.88
2023-05-09T09:52:51.812Z,2.63
2023-05-09T09:55:50.131Z,2.97
2023-05-09T09:58:38.979Z,2.20
2023-05-09T10:01:26.700Z,2.55
2023-05-09T10:04:17.621Z,3.20
2023-05-09T10:07:07.516Z,3.00
2023-05-09T10:09:55.156Z,2.80
2023-05-09T10:12:45.441Z,2.67
2023-05-09T10:15:49.390Z,2.45
2023-05-09T10:18:43.434Z,2.50
2023-05-09T10:21:31.848Z,2.75
2023-05-09T10:24:22.693Z,2.70
2023-05-09T10:27:13.135Z,2.80
2023-05-09T10:30:06.053Z,2.67
2023-05-09T10:32:59.426Z,2.20
2023-05-09T10:35:48.403Z,3.25
2023-05-09T10:38:36.891Z,2.58
2023-05-09T10:41:25.910Z,2.60
2023-05-09T10:44:13.387Z,2.55
2023-05-09T10:47:01.820Z,2.55
2023-05-09T10:49:50.949Z,2.65
2023-05-09T10:53:05.962Z,2.20
2023-05-09T10:55:56.056Z,2.70
2023-05-09T10:58:43.715Z,2.60
2023-05-09T11:01:35.186Z,2.92
2023-05-09T11:04:23.029Z,2.60
2023-05-09T11:07:25.606Z,2.92
2023-05-09T11:10:17.807Z,2.58
2023-05-09T11:13:05.840Z,2.78
2023-05-09T11:16:09.190Z,2.58
2023-05-09T11:18:56.876Z,2.35
2023-05-09T11:22:01.957Z,2.58
2023-05-09T11:24:53.949Z,2.40
2023-05-09T11:27:44.460Z,2.75
2023-05-09T11:30:39.696Z,2.33
2023-05-09T11:33:30.385Z,2.22
2023-05-09T11:36:20.222Z,2.15
2023-05-09T11:39:09.312Z,2.20
2023-05-09T11:41:58.040Z,2.58
2023-05-09T11:44:48.607Z,2.10
2023-05-09T11:47:38.072Z,2.13
2023-05-09T11:50:26.377Z,2.40
2023-05-09T11:53:14.129Z,2.10
2023-05-09T11:56:04.797Z,2.20
2023-05-09T11:58:54.153Z,2.33
2023-05-09T12:01:41.769Z,2.35
2023-05-09T12:04:31.697Z,2.33
2023-05-09T12:07:19.425Z,2.13
2023-05-09T12:10:08.573Z,2.38
2023-05-09T12:12:57.155Z,2.08
2023-05-09T12:15:45.868Z,2.58
2023-05-09T12:18:33.638Z,2.50
2023-05-09T12:21:22.313Z,2.20
2023-05-09T12:24:10.116Z,2.20
2023-05-09T12:26:59.541Z,2.13
2023-05-09T12:29:48.309Z,2.22
2023-05-09T12:32:39.685Z,2.08
2023-05-09T12:35:27.661Z,2.20
2023-05-09T12:38:16.341Z,2.28
2023-05-09T12:41:05.020Z,2.30
2023-05-09T12:43:52.638Z,2.30
2023-05-09T12:46:40.261Z,2.25
2023-05-09T12:49:29.817Z,2.85
2023-05-09T12:52:20.426Z,2.33
2023-05-09T12:55:09.100Z,2.17
2023-05-09T12:58:01.969Z,2.47
2023-05-09T13:00:49.404Z,2.70
2023-05-09T13:03:38.837Z,2.20
2023-05-09T13:06:27.730Z,2.53
2023-05-09T13:09:16.066Z,2.22
2023-05-09T13:12:04.929Z,2.25
2023-05-09T13:14:52.749Z,2.42
2023-05-09T13:17:40.192Z,2.72
2023-05-09T13:20:27.824Z,2.45
2023-05-09T13:23:16.636Z,2.33
2023-05-09T13:26:04.252Z,2.35
2023-05-09T13:28:51.778Z,2.33
2023-05-09T13:31:39.703Z,2.10
2023-05-09T13:34:27.324Z,2.30
2023-05-09T13:37:14.744Z,2.25
2023-05-09T13:40:04.340Z,1.92
2023-05-09T13:42:51.889Z,2.22
2023-05-09T13:45:39.576Z,1.90
2023-05-09T13:48:26.999Z,2.13
2023-05-09T13:51:15.056Z,2.20
2023-05-09T13:54:03.724Z,2.47
2023-05-09T13:56:52.764Z,2.03
2023-05-09T13:59:41.246Z,2.72
2023-05-09T14:02:28.947Z,2.20
2023-05-09T14:05:16.950Z,2.10
2023-05-09T14:08:04.595Z,2.72
2023-05-09T14:10:51.938Z,2.85
2023-05-09T14:13:41.095Z,2.30
2023-05-09T14:16:28.993Z,2.78
2023-05-09T14:19:17.178Z,2.97
2023-05-09T14:22:04.562Z,2.45
2023-05-09T14:24:52.273Z,2.75
2023-05-09T14:27:39.777Z,2.22
2023-05-09T14:30:28.827Z,2.10
2023-05-09T14:33:16.449Z,2.40
2023-05-09T14:36:04.407Z,2.63
2023-05-09T14:38:51.747Z,2.20
2023-05-09T14:41:39.300Z,2.05
2023-05-09T14:44:27.171Z,3.20
2023-05-09T14:47:17.068Z,2.75
2023-05-09T14:50:05.347Z,2.20
2023-05-09T14:52:53.408Z,2.60
2023-05-09T14:55:41.133Z,2.83
2023-05-09T14:58:31.452Z,2.40
2023-05-09T15:01:23.593Z,2.60
2023-05-09T15:04:12.694Z,2.47
2023-05-09T15:07:00.382Z,2.72
2023-05-09T15:09:48.083Z,2.42
2023-05-09T15:12:35.886Z,3.05
2023-05-09T15:15:24.616Z,2.45
2023-05-09T15:18:13.382Z,2.53
2023-05-09T15:21:02.522Z,2.72
2023-05-09T15:23:50.582Z,2.50
2023-05-09T15:26:37.998Z,2.75
2023-05-09T15:29:25.476Z,2.88
2023-05-09T15:32:12.851Z,2.75
2023-05-09T15:35:00.145Z,2.80
2023-05-09T15:37:49.075Z,2.47
2023-05-09T15:40:36.583Z,2.38
2023-05-09T15:43:24.528Z,2.30
2023-05-09T15:46:12.212Z,2.22
2023-05-09T15:48:59.513Z,2.40
2023-05-09T15:51:46.783Z,3.22
2023-05-09T15:54:36.100Z,2.20
2023-05-09T15:57:24.917Z,2.70
2023-05-09T16:00:16.366Z,2.75
2023-05-09T16:03:04.825Z,2.70
2023-05-09T16:05:52.225Z,2.45
2023-05-09T16:08:39.953Z,2.40
2023-05-09T16:11:28.793Z,2.72
2023-05-09T16:14:16.568Z,2.75
2023-05-09T16:17:04.679Z,2.42
2023-05-09T16:19:52.174Z,2.55
2023-05-09T16:22:39.562Z,2.28
2023-05-09T16:25:26.974Z,2.47
2023-05-09T16:28:15.915Z,2.10
2023-05-09T16:31:04.993Z,3.00
2023-05-09T16:33:52.562Z,2.83
2023-05-09T16:36:40.020Z,4.03
2023-05-09T16:39:28.090Z,2.13
2023-05-09T16:42:15.716Z,2.40
2023-05-09T16:45:04.625Z,3.00
2023-05-09T16:47:53.363Z,2.67
2023-05-09T16:50:43.310Z,2.60
2023-05-09T16:53:30.833Z,2.50
2023-05-09T16:56:18.245Z,2.95
2023-05-09T16:59:06.028Z,2.88
2023-05-09T17:01:57.612Z,2.40
2023-05-09T17:04:45.458Z,2.85
2023-05-09T17:07:33.487Z,2.50
2023-05-09T17:10:20.934Z,2.65
2023-05-09T17:13:08.867Z,2.35
2023-05-09T17:15:57.002Z,2.88
2023-05-09T17:18:47.703Z,3.05
2023-05-09T17:21:35.082Z,2.90
2023-05-09T17:24:22.660Z,2.97
2023-05-09T17:27:11.455Z,3.13
2023-05-09T17:29:59.141Z,2.97
2023-05-09T17:32:46.839Z,3.20
2023-05-09T17:35:35.735Z,3.38
2023-05-09T17:38:23.283Z,3.33
2023-05-09T17:41:10.961Z,2.92
2023-05-09T17:43:58.720Z,2.95
2023-05-09T17:46:46.155Z,2.53
2023-05-09T17:49:33.762Z,3.03
2023-05-09T17:52:22.946Z,3.15
2023-05-09T17:55:11.107Z,3.20
2023-05-09T17:57:58.666Z,3.05
2023-05-09T18:00:46.685Z,3.35
2023-05-09T18:03:34.378Z,3.47
2023-05-09T18:06:21.851Z,3.30
2023-05-09T18:09:10.838Z,3.85
2023-05-09T18:11:59.140Z,3.30
2023-05-09T18:14:47.771Z,3.85
2023-05-09T18:17:35.321Z,4.00
2023-05-09T18:20:22.969Z,3.72
2023-05-09T18:23:10.681Z,3.45
2023-05-09T18:25:59.656Z,3.50
2023-05-09T18:28:47.360Z,3.63
2023-05-09T18:31:38.741Z,4.97
2023-05-09T18:34:28.135Z,5.05
2023-05-09T18:37:16.916Z,4.32
2023-05-09T18:40:05.391Z,4.93
2023-05-09T18:42:54.287Z,4.40
2023-05-09T18:45:44.986Z,4.45
2023-05-09T18:48:33.584Z,3.90
2023-05-09T18:51:21.585Z,4.57
2023-05-09T18:54:09.680Z,4.00
2023-05-09T18:56:57.196Z,3.70
2023-05-09T18:59:46.090Z,4.65
2023-05-09T19:02:33.940Z,4.65
2023-05-09T19:05:21.682Z,3.78
2023-05-09T19:08:09.262Z,4.65
2023-05-09T19:10:56.990Z,4.97
2023-05-09T19:13:48.640Z,3.92
2023-05-09T19:16:37.797Z,4.45
2023-05-09T19:19:25.560Z,4.30
2023-05-09T19:22:13.100Z,4.07
2023-05-09T19:25:01.122Z,4.50
2023-05-09T19:27:49.047Z,4.45
2023-05-09T19:30:36.441Z,5.00
2023-05-09T19:33:26.173Z,5.20
2023-05-09T19:36:14.017Z,4.18
2023-05-09T19:39:01.771Z,4.68
2023-05-09T19:41:49.278Z,4.68
2023-05-09T19:44:36.678Z,5.03
2023-05-09T19:47:24.124Z,4.43
2023-05-09T19:50:13.766Z,4.78
2023-05-09T19:53:01.610Z,4.45
2023-05-09T19:55:49.101Z,4.60
2023-05-09T19:58:36.624Z,4.00
2023-05-09T20:01:25.190Z,4.07
2023-05-09T20:04:12.568Z,4.30
2023-05-09T20:10:06.952Z,4.75
2023-05-09T20:12:56.495Z,4.00
2023-05-09T20:15:44.294Z,4.80
2023-05-09T20:18:33.563Z,5.10
2023-05-09T20:21:21.301Z,4.43
2023-05-09T20:24:11.787Z,3.63
2023-05-09T20:26:59.502Z,5.75
2023-05-09T20:29:47.175Z,3.88
2023-05-09T20:32:35.123Z,3.97
2023-05-09T20:35:23.256Z,4.75
2023-05-09T20:38:11.142Z,4.80
2023-05-09T20:40:59.756Z,4.60
2023-05-09T20:43:47.298Z,4.60
2023-05-09T20:46:35.412Z,4.10
2023-05-09T20:49:23.909Z,4.82
2023-05-09T20:52:11.563Z,4.45
2023-05-09T20:54:59.401Z,4.63
2023-05-09T20:57:48.814Z,4.95
2023-05-09T21:00:36.281Z,5.03
2023-05-09T21:03:24.794Z,4.57
2023-05-09T21:06:12.119Z,4.70
2023-05-09T21:08:59.686Z,4.20
2023-05-09T21:11:47.180Z,4.20
2023-05-09T21:14:35.864Z,5.07
2023-05-09T21:17:23.421Z,4.50
2023-05-09T21:20:11.582Z,4.88
2023-05-09T21:22:58.940Z,5.43
2023-05-09T21:25:46.550Z,5.00
2023-05-09T21:28:34.075Z,4.65
2023-05-09T21:31:22.905Z,5.32
2023-05-09T21:34:10.825Z,4.53
2023-05-09T21:36:58.465Z,5.28
2023-05-09T21:39:46.218Z,4.43
2023-05-09T21:42:35.433Z,4.70
2023-05-09T21:45:23.318Z,4.68
2023-05-09T21:48:12.551Z,4.43
2023-05-09T21:51:02.734Z,4.32
2023-05-09T21:53:50.018Z,4.13
2023-05-09T21:56:37.925Z,4.90
2023-05-09T21:59:26.480Z,5.35
2023-05-09T22:02:14.482Z,4.78
2023-05-09T22:05:03.609Z,3.97
2023-05-09T22:07:51.652Z,4.97
2023-05-09T22:10:39.325Z,4.45
2023-05-09T22:13:28.847Z,4.25
2023-05-09T22:16:17.598Z,4.30
2023-05-09T22:19:05.408Z,5.00
2023-05-09T22:21:54.510Z,4.07
2023-05-09T22:24:42.609Z,4.35
2023-05-09T22:27:29.966Z,5.43
2023-05-09T22:30:17.923Z,4.57
2023-05-09T22:33:05.663Z,4.35
2023-05-09T22:35:53.872Z,4.55
2023-05-09T22:38:43.470Z,5.15
2023-05-09T22:41:30.815Z,4.25
2023-05-09T22:44:18.515Z,5.03
2023-05-09T22:47:08.157Z,4.95
2023-05-09T22:49:55.955Z,5.00
2023-05-09T22:52:43.381Z,4.57
2023-05-09T22:55:32.160Z,4.95
2023-05-09T22:58:19.888Z,5.07
2023-05-09T23:01:07.762Z,4.93
2023-05-09T23:03:55.413Z,4.70
2023-05-09T23:06:42.753Z,4.40
2023-05-09T23:09:30.373Z,4.82
2023-05-09T23:12:19.666Z,5.13
2023-05-09T23:15:08.900Z,5.35
2023-05-09T23:17:56.569Z,5.00
2023-05-09T23:20:44.115Z,5.38
2023-05-09T23:23:31.592Z,5.55
2023-05-09T23:26:18.828Z,6.28
2023-05-09T23:29:07.758Z,5.95
2023-05-09T23:31:55.292Z,5.78
2023-05-09T23:34:42.988Z,5.80
2023-05-09T23:37:30.450Z,6.22
2023-05-09T23:40:18.307Z,5.63
2023-05-09T23:43:05.998Z,6.10
2023-05-09T23:45:56.701Z,5.70
2023-05-09T23:48:44.118Z,6.55
2023-05-09T23:51:31.948Z,5.57
2023-05-09T23:54:21.415Z,5.97
2023-05-09T23:57:08.954Z,5.93
2023-05-09T23:59:56.677Z,5.80
